| time (UTC) | temp F | wind direction | speed knots | gust knots | rain 1hr in | rain 24hr in | rain mn in | humidity % | barometer mb |
| 20260506104503 | 56 | 309 | 0.0 | 1.7 | 0.00 | 0.01 | 0.00 | 86 | 1018.8 |
| 20260506104003 | 56 | 269 | 0.9 | 3.5 | 0.00 | 0.01 | 0.00 | 86 | 1018.8 |
| 20260506103503 | 56 | 263 | 0.9 | 3.5 | 0.00 | 0.01 | 0.00 | 86 | 1018.8 |
| 20260506103003 | 56 | 256 | 0.0 | 1.7 | 0.00 | 0.01 | 0.00 | 87 | 1018.7 |
| 20260506102503 | 56 | 285 | 0.0 | 1.7 | 0.00 | 0.01 | 0.00 | 87 | 1018.7 |
| 20260506102003 | 56 | 342 | 0.0 | 1.7 | 0.00 | 0.01 | 0.00 | 87 | 1018.7 |
| 20260506101503 | 56 | 283 | 0.0 | 0.9 | 0.00 | 0.01 | 0.00 | 86 | 1018.6 |
| 20260506101218 | 56 | 266 | 0.0 | 0.9 | 0.00 | 0.01 | 0.00 | 86 | 1018.6 |
| 20260506100503 | 56 | 264 | 0.0 | 0.9 | 0.00 | 0.01 | 0.00 | 86 | 1018.6 |
| 20260506100003 | 55 | 269 | 0.0 | 1.7 | 0.00 | 0.01 | 0.00 | 86 | 1018.7 |
| 20260506095503 | 55 | 276 | 0.0 | 1.7 | 0.00 | 0.01 | 0.00 | 86 | 1018.7 |
| 20260506095218 | 55 | 321 | 0.0 | 0.9 | 0.00 | 0.01 | 0.00 | 86 | 1018.7 |
| 20260506094503 | 56 | 329 | 0.0 | 4.3 | 0.00 | 0.01 | 0.00 | 86 | 1018.8 |
| 20260506094003 | 56 | 329 | 0.0 | 4.3 | 0.00 | 0.01 | 0.00 | 86 | 1018.8 |
| 20260506093503 | 56 | 329 | 0.0 | 1.7 | 0.00 | 0.01 | 0.00 | 86 | 1018.8 |
| 20260506093003 | 56 | 299 | 0.0 | 1.7 | 0.00 | 0.01 | 0.00 | 85 | 1018.8 |
| 20260506092503 | 56 | 277 | 0.0 | 0.9 | 0.00 | 0.02 | 0.00 | 85 | 1018.7 |
| 20260506092003 | 56 | 273 | 0.0 | 0.9 | 0.00 | 0.02 | 0.00 | 85 | 1018.6 |
| 20260506091716 | 56 | 262 | 0.0 | 1.7 | 0.00 | 0.02 | 0.00 | 85 | 1018.6 |
| 20260506091003 | 56 | 259 | 0.0 | 1.7 | 0.00 | 0.02 | 0.00 | 84 | 1018.5 |
| 20260506090503 | 56 | 262 | 0.0 | 1.7 | 0.00 | 0.03 | 0.00 | 84 | 1018.7 |
| 20260506090003 | 56 | 269 | 0.0 | 0.9 | 0.00 | 0.03 | 0.00 | 84 | 1018.6 |
| 20260506085503 | 56 | 269 | 0.0 | 0.9 | 0.00 | 0.03 | 0.00 | 84 | 1018.7 |
| 20260506085003 | 56 | 269 | 0.0 | 0.9 | 0.00 | 0.03 | 0.00 | 83 | 1018.6 |
| 20260506084503 | 56 | 299 | 0.0 | 1.7 | 0.00 | 0.03 | 0.00 | 83 | 1018.7 |
| 20260506084003 | 56 | 299 | 0.0 | 1.7 | 0.00 | 0.03 | 0.00 | 83 | 1018.7 |
| 20260506083503 | 56 | 263 | 0.0 | 3.5 | 0.00 | 0.03 | 0.00 | 84 | 1018.7 |
| 20260506083003 | 56 | 268 | 0.0 | 3.5 | 0.00 | 0.03 | 0.00 | 84 | 1018.7 |
| 20260506082503 | 56 | 290 | 0.0 | 1.7 | 0.00 | 0.03 | 0.00 | 84 | 1018.7 |
| 20260506082003 | 56 | 305 | 0.0 | 1.7 | 0.00 | 0.03 | 0.00 | 84 | 1018.7 |
| 20260506081503 | 56 | 264 | 0.0 | 1.7 | 0.00 | 0.04 | 0.00 | 84 | 1018.7 |
| 20260506081003 | 56 | 259 | 0.0 | 1.7 | 0.00 | 0.04 | 0.00 | 84 | 1018.7 |
| 20260506080503 | 56 | 246 | 0.0 | 1.7 | 0.00 | 0.05 | 0.00 | 84 | 1018.8 |
| 20260506073503 | 56 | 269 | 0.0 | 2.6 | 0.00 | 0.08 | 0.00 | 85 | 1018.4 |
| 20260506073003 | 56 | 274 | 0.0 | 1.7 | 0.00 | 0.08 | 0.00 | 85 | 1018.4 |
| 20260506072717 | 56 | 278 | 0.0 | 1.7 | 0.00 | 0.08 | 0.00 | 85 | 1018.4 |
| 20260506072003 | 56 | 260 | 0.0 | 1.7 | 0.00 | 0.08 | 0.00 | 86 | 1018.4 |
| 20260506071715 | 56 | 261 | 0.9 | 2.6 | 0.00 | 0.09 | 0.00 | 86 | 1018.3 |
| 20260506071003 | 56 | 270 | 0.0 | 2.6 | 0.00 | 0.09 | 0.00 | 87 | 1018.2 |
| 20260506070718 | 56 | 278 | 0.0 | 1.7 | 0.00 | 0.09 | 0.00 | 87 | 1018.3 |
| 20260506070219 | 56 | 276 | 0.9 | 2.6 | 0.00 | 0.09 | 0.00 | 87 | 1018.3 |
| 20260506062503 | 56 | 251 | 0.0 | 1.7 | 0.00 | 0.09 | 0.09 | 86 | 1017.8 |
| 20260506062218 | 56 | 271 | 0.0 | 1.7 | 0.00 | 0.09 | 0.09 | 86 | 1017.8 |
| 20260506061503 | 56 | 273 | 0.0 | 1.7 | 0.00 | 0.10 | 0.09 | 86 | 1017.7 |
| 20260506061216 | 56 | 273 | 0.0 | 1.7 | 0.00 | 0.10 | 0.09 | 86 | 1017.7 |
| 20260506060503 | 57 | 267 | 0.0 | 1.7 | 0.00 | 0.10 | 0.09 | 86 | 1017.6 |
| 20260506051216 | 57 | 269 | 1.7 | 4.3 | 0.00 | 0.13 | 0.09 | 87 | 1017.4 |
| 20260506050503 | 57 | 269 | 0.9 | 4.3 | 0.00 | 0.13 | 0.09 | 87 | 1017.5 |
| 20260506050218 | 57 | 266 | 0.9 | 3.5 | 0.00 | 0.13 | 0.09 | 87 | 1017.5 |
| 20260506045003 | 56 | 265 | 0.9 | 4.3 | 0.00 | 0.14 | 0.09 | 88 | 1017.2 |
| 20260506044716 | 56 | 265 | 0.9 | 3.5 | 0.00 | 0.14 | 0.09 | 88 | 1017.3 |
| 20260506044218 | 56 | 262 | 0.0 | 1.7 | 0.00 | 0.15 | 0.09 | 88 | 1017.2 |
| 20260506043503 | 56 | 288 | 0.9 | 4.3 | 0.00 | 0.15 | 0.09 | 88 | 1017.2 |
| 20260506043003 | 56 | 269 | 0.0 | 4.3 | 0.00 | 0.15 | 0.09 | 87 | 1017.2 |
| 20260506042503 | 56 | 262 | 0.0 | 3.5 | 0.00 | 0.15 | 0.09 | 87 | 1017.2 |
| 20260506042003 | 56 | 259 | 0.9 | 3.5 | 0.00 | 0.15 | 0.09 | 87 | 1017.1 |
| 20260506041718 | 57 | 259 | 0.9 | 3.5 | 0.00 | 0.15 | 0.09 | 87 | 1017.2 |
| 20260506041003 | 57 | 249 | 0.9 | 3.5 | 0.00 | 0.15 | 0.09 | 87 | 1017.0 |
| 20260506040503 | 57 | 233 | 0.9 | 2.6 | 0.00 | 0.15 | 0.09 | 87 | 1016.9 |
| 20260506040003 | 57 | 263 | 0.9 | 4.3 | 0.00 | 0.15 | 0.09 | 86 | 1016.8 |
| 20260506035503 | 57 | 266 | 1.7 | 5.2 | 0.00 | 0.15 | 0.09 | 86 | 1016.7 |
| 20260506035219 | 57 | 265 | 1.7 | 5.2 | 0.00 | 0.15 | 0.09 | 86 | 1016.7 |
| 20260506034503 | 57 | 253 | 0.9 | 4.3 | 0.00 | 0.15 | 0.09 | 85 | 1016.6 |
| 20260506034003 | 57 | 272 | 0.9 | 4.3 | 0.00 | 0.15 | 0.09 | 85 | 1016.6 |
| 20260506033503 | 57 | 281 | 0.9 | 4.3 | 0.00 | 0.15 | 0.09 | 85 | 1016.4 |
| 20260506033003 | 57 | 274 | 0.9 | 5.2 | 0.00 | 0.15 | 0.09 | 85 | 1016.4 |
| 20260506032503 | 57 | 273 | 1.7 | 6.1 | 0.00 | 0.15 | 0.09 | 85 | 1016.4 |
| 20260506032003 | 58 | 267 | 1.7 | 6.1 | 0.00 | 0.15 | 0.09 | 84 | 1016.3 |
| 20260506031718 | 58 | 263 | 1.7 | 6.1 | 0.00 | 0.15 | 0.09 | 84 | 1016.3 |
| 20260506031219 | 58 | 258 | 1.7 | 5.2 | 0.00 | 0.15 | 0.09 | 84 | 1016.3 |
| 20260506030503 | 58 | 265 | 1.7 | 5.2 | 0.00 | 0.15 | 0.09 | 83 | 1016.1 |
| 20260506030217 | 58 | 263 | 1.7 | 7.0 | 0.00 | 0.15 | 0.09 | 83 | 1016.1 |
| 20260506025503 | 58 | 262 | 1.7 | 7.0 | 0.00 | 0.15 | 0.09 | 83 | 1016.0 |
| 20260506025003 | 58 | 272 | 1.7 | 6.1 | 0.00 | 0.15 | 0.09 | 83 | 1016.0 |
| 20260506024503 | 58 | 270 | 2.6 | 7.0 | 0.00 | 0.15 | 0.09 | 83 | 1016.0 |
| 20260506024003 | 58 | 267 | 1.7 | 7.0 | 0.00 | 0.15 | 0.09 | 83 | 1016.1 |
| 20260506023503 | 58 | 271 | 1.7 | 6.1 | 0.00 | 0.15 | 0.09 | 83 | 1016.0 |
| 20260506023003 | 58 | 269 | 2.6 | 7.8 | 0.00 | 0.15 | 0.09 | 82 | 1015.9 |
| 20260506022503 | 59 | 259 | 1.7 | 7.8 | 0.00 | 0.15 | 0.09 | 81 | 1015.8 |
| 20260506022217 | 59 | 267 | 1.7 | 5.2 | 0.00 | 0.15 | 0.09 | 81 | 1015.8 |
| 20260506021503 | 59 | 260 | 1.7 | 7.0 | 0.00 | 0.15 | 0.09 | 81 | 1015.5 |
| 20260506021003 | 59 | 259 | 1.7 | 7.0 | 0.00 | 0.15 | 0.09 | 81 | 1015.4 |
| 20260506020503 | 60 | 270 | 1.7 | 8.7 | 0.00 | 0.15 | 0.09 | 80 | 1015.5 |
| 20260506020003 | 60 | 272 | 2.6 | 9.6 | 0.00 | 0.15 | 0.09 | 79 | 1015.5 |
| 20260506015503 | 60 | 274 | 2.6 | 9.6 | 0.00 | 0.15 | 0.09 | 79 | 1015.4 |
| 20260506015003 | 61 | 288 | 2.6 | 7.8 | 0.00 | 0.15 | 0.09 | 77 | 1015.4 |
| 20260506014503 | 61 | 293 | 1.7 | 5.2 | 0.00 | 0.15 | 0.09 | 77 | 1015.4 |
| 20260506014003 | 61 | 270 | 2.6 | 5.2 | 0.00 | 0.15 | 0.09 | 76 | 1015.5 |
| 20260506013717 | 61 | 269 | 2.6 | 6.1 | 0.00 | 0.15 | 0.09 | 76 | 1015.4 |
| 20260506013003 | 62 | 262 | 1.7 | 7.0 | 0.00 | 0.15 | 0.09 | 75 | 1015.5 |
| 20260506012503 | 63 | 258 | 1.7 | 7.8 | 0.00 | 0.15 | 0.09 | 74 | 1015.5 |
| 20260506012003 | 62 | 268 | 2.6 | 7.8 | 0.00 | 0.15 | 0.09 | 74 | 1015.6 |
| 20260506011503 | 63 | 264 | 2.6 | 7.8 | 0.00 | 0.15 | 0.09 | 74 | 1015.5 |
| 20260506011003 | 62 | 268 | 2.6 | 8.7 | 0.00 | 0.15 | 0.09 | 74 | 1015.5 |
| 20260506010503 | 62 | 281 | 2.6 | 8.7 | 0.00 | 0.15 | 0.09 | 74 | 1015.5 |
| 20260506010003 | 63 | 277 | 0.9 | 6.1 | 0.00 | 0.15 | 0.09 | 72 | 1015.5 |
| 20260506005717 | 63 | 268 | 0.9 | 6.1 | 0.00 | 0.15 | 0.09 | 72 | 1015.6 |
| 20260506005003 | 62 | 269 | 2.6 | 7.8 | 0.00 | 0.15 | 0.09 | 75 | 1015.4 |
| 20260506004504 | 62 | 264 | 2.6 | 7.8 | 0.00 | 0.15 | 0.09 | 74 | 1015.5 |
| 20260506004003 | 62 | 259 | 3.5 | 10.4 | 0.00 | 0.15 | 0.09 | 75 | 1015.4 |
| 20260506003503 | 61 | 267 | 4.3 | 10.4 | 0.00 | 0.15 | 0.09 | 76 | 1015.4 |
| 20260506003003 | 61 | 271 | 3.5 | 9.6 | 0.00 | 0.15 | 0.09 | 75 | 1015.4 |
| 20260506002503 | 62 | 269 | 3.5 | 8.7 | 0.00 | 0.15 | 0.09 | 73 | 1015.3 |
| 20260506002003 | 62 | 268 | 1.7 | 8.7 | 0.00 | 0.15 | 0.09 | 73 | 1015.2 |
| 20260506001503 | 62 | 270 | 1.7 | 8.7 | 0.00 | 0.15 | 0.09 | 75 | 1015.2 |
| 20260506001003 | 62 | 279 | 1.7 | 6.1 | 0.00 | 0.15 | 0.09 | 74 | 1015.2 |
| 20260506000503 | 62 | 270 | 1.7 | 7.0 | 0.00 | 0.15 | 0.09 | 74 | 1015.2 |
| 20260506000003 | 62 | 244 | 2.6 | 7.8 | 0.00 | 0.15 | 0.09 | 75 | 1015.2 |
| 20260505235717 | 62 | 260 | 2.6 | 7.8 | 0.00 | 0.15 | 0.09 | 75 | 1015.2 |
| 20260505235003 | 62 | 277 | 2.6 | 8.7 | 0.00 | 0.15 | 0.09 | 76 | 1015.2 |
| 20260505234503 | 62 | 280 | 2.6 | 10.4 | 0.00 | 0.15 | 0.09 | 76 | 1015.1 |
| 20260505234216 | 62 | 272 | 2.6 | 10.4 | 0.00 | 0.15 | 0.09 | 76 | 1015.2 |
| 20260505233503 | 62 | 265 | 2.6 | 7.8 | 0.00 | 0.15 | 0.09 | 76 | 1015.3 |
| 20260505233003 | 62 | 270 | 2.6 | 6.1 | 0.00 | 0.15 | 0.09 | 75 | 1015.1 |
| 20260505232503 | 62 | 273 | 2.6 | 8.7 | 0.00 | 0.15 | 0.09 | 75 | 1015.2 |
| 20260505232003 | 63 | 269 | 2.6 | 8.7 | 0.00 | 0.15 | 0.09 | 72 | 1015.3 |
| 20260505231503 | 63 | 265 | 2.6 | 9.6 | 0.00 | 0.15 | 0.09 | 75 | 1015.2 |
| 20260505231003 | 63 | 265 | 2.6 | 9.6 | 0.00 | 0.15 | 0.09 | 74 | 1015.2 |
| 20260505230503 | 63 | 271 | 2.6 | 7.8 | 0.00 | 0.15 | 0.09 | 74 | 1015.2 |
| 20260505230215 | 63 | 273 | 3.5 | 9.6 | 0.00 | 0.15 | 0.09 | 75 | 1015.2 |
| 20260505225503 | 63 | 270 | 4.3 | 10.4 | 0.00 | 0.15 | 0.09 | 74 | 1015.2 |
| 20260505225003 | 63 | 268 | 3.5 | 10.4 | 0.00 | 0.15 | 0.09 | 74 | 1015.1 |
| 20260505224503 | 64 | 271 | 2.6 | 9.6 | 0.00 | 0.15 | 0.09 | 73 | 1015.2 |
| 20260505224003 | 63 | 267 | 3.5 | 9.6 | 0.00 | 0.15 | 0.09 | 74 | 1015.2 |
| 20260505223503 | 64 | 254 | 2.6 | 9.6 | 0.00 | 0.15 | 0.09 | 74 | 1015.1 |
| 20260505223003 | 64 | 254 | 1.7 | 6.1 | 0.00 | 0.15 | 0.09 | 75 | 1015.2 |
| 20260505222503 | 62 | 263 | 2.6 | 10.4 | 0.00 | 0.15 | 0.09 | 77 | 1015.2 |
| 20260505222003 | 62 | 267 | 3.5 | 10.4 | 0.00 | 0.15 | 0.09 | 77 | 1015.3 |
| 20260505221503 | 61 | 264 | 4.3 | 10.4 | 0.00 | 0.15 | 0.09 | 78 | 1015.1 |
| 20260505221003 | 61 | 265 | 3.5 | 10.4 | 0.00 | 0.15 | 0.09 | 78 | 1015.3 |
| 20260505220503 | 61 | 269 | 2.6 | 8.7 | 0.00 | 0.15 | 0.09 | 79 | 1015.3 |
| 20260505220003 | 61 | 276 | 2.6 | 8.7 | 0.00 | 0.15 | 0.09 | 78 | 1015.5 |
| 20260505215503 | 61 | 280 | 2.6 | 7.8 | 0.00 | 0.15 | 0.09 | 79 | 1015.4 |
| 20260505215003 | 61 | 271 | 2.6 | 10.4 | 0.00 | 0.15 | 0.09 | 80 | 1015.4 |
| 20260505214503 | 61 | 270 | 3.5 | 10.4 | 0.00 | 0.15 | 0.09 | 78 | 1015.4 |
| 20260505214003 | 61 | 271 | 3.5 | 9.6 | 0.00 | 0.15 | 0.09 | 78 | 1015.5 |
| 20260505213503 | 61 | 275 | 3.5 | 9.6 | 0.00 | 0.15 | 0.09 | 78 | 1015.5 |
| 20260505213003 | 61 | 275 | 3.5 | 7.0 | 0.00 | 0.15 | 0.09 | 78 | 1015.6 |
| 20260505212503 | 61 | 273 | 3.5 | 7.0 | 0.00 | 0.15 | 0.09 | 77 | 1015.6 |
| 20260505212003 | 61 | 272 | 3.5 | 8.7 | 0.00 | 0.15 | 0.09 | 78 | 1015.7 |
| 20260505211503 | 61 | 267 | 2.6 | 8.7 | 0.00 | 0.15 | 0.09 | 77 | 1015.7 |
| 20260505211003 | 61 | 269 | 2.6 | 8.7 | 0.00 | 0.15 | 0.09 | 77 | 1015.5 |
| 20260505210503 | 61 | 271 | 3.5 | 9.6 | 0.00 | 0.15 | 0.09 | 77 | 1015.7 |
| 20260505210003 | 61 | 275 | 3.5 | 10.4 | 0.00 | 0.15 | 0.09 | 77 | 1015.7 |
| 20260505205503 | 61 | 274 | 3.5 | 10.4 | 0.00 | 0.15 | 0.09 | 76 | 1015.6 |
| 20260505205003 | 61 | 273 | 2.6 | 9.6 | 0.00 | 0.15 | 0.09 | 75 | 1015.6 |
| 20260505204503 | 61 | 273 | 2.6 | 9.6 | 0.00 | 0.15 | 0.09 | 75 | 1015.6 |
| 20260505204003 | 61 | 270 | 3.5 | 8.7 | 0.00 | 0.15 | 0.09 | 74 | 1015.6 |
| 20260505203503 | 61 | 270 | 3.5 | 9.6 | 0.00 | 0.15 | 0.09 | 75 | 1015.7 |
| 20260505203003 | 62 | 273 | 2.6 | 9.6 | 0.00 | 0.15 | 0.09 | 73 | 1015.6 |
| 20260505202717 | 62 | 279 | 2.6 | 9.6 | 0.00 | 0.15 | 0.09 | 74 | 1015.6 |
| 20260505202003 | 62 | 276 | 3.5 | 10.4 | 0.00 | 0.15 | 0.09 | 74 | 1015.6 |
| 20260505201503 | 63 | 302 | 2.6 | 10.4 | 0.00 | 0.15 | 0.09 | 72 | 1015.7 |
| 20260505201003 | 63 | 306 | 2.6 | 8.7 | 0.00 | 0.15 | 0.09 | 72 | 1015.5 |
| 20260505200503 | 63 | 278 | 3.5 | 12.2 | 0.00 | 0.15 | 0.09 | 73 | 1015.6 |
| 20260505200003 | 63 | 272 | 3.5 | 12.2 | 0.00 | 0.15 | 0.09 | 73 | 1015.6 |
| 20260505195719 | 63 | 267 | 2.6 | 12.2 | 0.00 | 0.15 | 0.09 | 73 | 1015.7 |
| 20260505195216 | 62 | 279 | 2.6 | 8.7 | 0.00 | 0.15 | 0.09 | 75 | 1015.7 |
| 20260505194503 | 62 | 279 | 2.6 | 7.0 | 0.00 | 0.15 | 0.09 | 75 | 1015.8 |
| 20260505194003 | 62 | 270 | 2.6 | 7.0 | 0.00 | 0.15 | 0.09 | 75 | 1015.9 |
| 20260505193503 | 62 | 263 | 2.6 | 7.0 | 0.00 | 0.15 | 0.09 | 76 | 1015.8 |
| 20260505193003 | 62 | 262 | 2.6 | 7.0 | 0.00 | 0.15 | 0.09 | 74 | 1015.9 |
| 20260505192717 | 62 | 264 | 1.7 | 6.1 | 0.00 | 0.15 | 0.09 | 75 | 1015.8 |
| 20260505192218 | 61 | 271 | 1.7 | 6.1 | 0.00 | 0.15 | 0.09 | 75 | 1015.9 |
| 20260505191503 | 61 | 271 | 1.7 | 7.8 | 0.00 | 0.15 | 0.09 | 77 | 1015.9 |
| 20260505191003 | 60 | 275 | 2.6 | 7.8 | 0.00 | 0.15 | 0.09 | 77 | 1015.9 |
| 20260505190503 | 60 | 276 | 1.7 | 7.8 | 0.00 | 0.15 | 0.09 | 78 | 1015.7 |
| 20260505190003 | 60 | 272 | 2.6 | 8.7 | 0.00 | 0.15 | 0.09 | 80 | 1015.6 |
| 20260505185503 | 60 | 270 | 3.5 | 8.7 | 0.00 | 0.15 | 0.09 | 81 | 1015.7 |
| 20260505185003 | 60 | 266 | 2.6 | 7.8 | 0.00 | 0.15 | 0.09 | 80 | 1015.7 |
| 20260505184503 | 60 | 269 | 2.6 | 10.4 | 0.00 | 0.15 | 0.09 | 79 | 1015.7 |
| 20260505184003 | 60 | 267 | 3.5 | 10.4 | 0.00 | 0.15 | 0.09 | 80 | 1015.5 |
| 20260505183503 | 60 | 267 | 3.5 | 8.7 | 0.00 | 0.15 | 0.09 | 81 | 1015.6 |
| 20260505183003 | 60 | 268 | 2.6 | 8.7 | 0.00 | 0.15 | 0.09 | 82 | 1015.8 |
| 20260505182503 | 60 | 269 | 1.7 | 7.0 | 0.00 | 0.15 | 0.09 | 82 | 1015.7 |
| 20260505182218 | 60 | 273 | 1.7 | 7.0 | 0.00 | 0.15 | 0.09 | 81 | 1015.8 |
| 20260505181503 | 60 | 273 | 1.7 | 8.7 | 0.00 | 0.15 | 0.09 | 81 | 1015.7 |
| 20260505181003 | 60 | 272 | 1.7 | 8.7 | 0.00 | 0.15 | 0.09 | 82 | 1015.8 |
| 20260505180503 | 60 | 265 | 1.7 | 7.0 | 0.00 | 0.15 | 0.09 | 83 | 1015.7 |
| 20260505180003 | 59 | 263 | 2.6 | 7.0 | 0.00 | 0.15 | 0.09 | 83 | 1015.5 |
| 20260505175503 | 59 | 270 | 2.6 | 7.0 | 0.00 | 0.15 | 0.09 | 84 | 1015.5 |
| 20260505175003 | 59 | 279 | 2.6 | 6.1 | 0.00 | 0.15 | 0.09 | 85 | 1015.4 |
| 20260505174503 | 58 | 271 | 1.7 | 6.1 | 0.00 | 0.15 | 0.09 | 85 | 1015.3 |
| 20260505174003 | 58 | 265 | 2.6 | 7.0 | 0.00 | 0.15 | 0.09 | 85 | 1015.4 |
| 20260505173503 | 58 | 272 | 1.7 | 7.0 | 0.00 | 0.15 | 0.09 | 86 | 1015.4 |
| 20260505173003 | 58 | 273 | 1.7 | 5.2 | 0.00 | 0.15 | 0.09 | 86 | 1015.4 |
| 20260505172503 | 58 | 283 | 1.7 | 6.1 | 0.00 | 0.15 | 0.09 | 87 | 1015.3 |
| 20260505172003 | 58 | 292 | 1.7 | 6.1 | 0.00 | 0.15 | 0.09 | 87 | 1015.4 |
| 20260505171718 | 57 | 278 | 1.7 | 6.1 | 0.00 | 0.15 | 0.09 | 87 | 1015.3 |
| 20260505171003 | 57 | 264 | 1.7 | 6.1 | 0.00 | 0.15 | 0.09 | 87 | 1015.4 |
| 20260505170503 | 57 | 279 | 1.7 | 6.1 | 0.00 | 0.15 | 0.09 | 87 | 1015.2 |
| 20260505170003 | 57 | 277 | 2.6 | 6.1 | 0.00 | 0.15 | 0.09 | 88 | 1015.3 |
| 20260505165503 | 57 | 277 | 2.6 | 7.0 | 0.00 | 0.15 | 0.09 | 88 | 1015.3 |
| 20260505165219 | 57 | 278 | 2.6 | 7.0 | 0.00 | 0.15 | 0.09 | 88 | 1015.4 |
| 20260505164503 | 57 | 263 | 1.7 | 5.2 | 0.00 | 0.15 | 0.09 | 89 | 1015.3 |
| 20260505164003 | 57 | 274 | 0.9 | 5.2 | 0.00 | 0.15 | 0.09 | 89 | 1015.3 |
| 20260505163503 | 57 | 278 | 1.7 | 4.3 | 0.00 | 0.15 | 0.09 | 89 | 1015.3 |
| 20260505163003 | 56 | 271 | 1.7 | 4.3 | 0.00 | 0.15 | 0.09 | 89 | 1015.3 |
| 20260505162503 | 56 | 275 | 0.9 | 3.5 | 0.00 | 0.15 | 0.09 | 89 | 1015.4 |
| 20260505162003 | 56 | 289 | 0.9 | 2.6 | 0.00 | 0.15 | 0.09 | 89 | 1015.3 |
| 20260505161503 | 56 | 268 | 0.9 | 3.5 | 0.00 | 0.15 | 0.09 | 90 | 1015.2 |
| 20260505161003 | 56 | 266 | 0.9 | 4.3 | 0.00 | 0.15 | 0.09 | 90 | 1015.2 |
| 20260505160503 | 56 | 269 | 0.9 | 4.3 | 0.01 | 0.15 | 0.09 | 90 | 1015.0 |
| 20260505153003 | 55 | 264 | 0.9 | 3.5 | 0.01 | 0.15 | 0.09 | 91 | 1014.9 |
| 20260505152503 | 55 | 266 | 0.9 | 6.1 | 0.01 | 0.15 | 0.09 | 90 | 1014.9 |
| 20260505152217 | 55 | 285 | 0.9 | 6.1 | 0.01 | 0.15 | 0.09 | 90 | 1014.8 |
| 20260505151503 | 55 | 279 | 1.7 | 4.3 | 0.01 | 0.15 | 0.09 | 90 | 1014.9 |
| 20260505151003 | 55 | 270 | 1.7 | 5.2 | 0.01 | 0.15 | 0.09 | 90 | 1014.8 |
| 20260505150503 | 55 | 267 | 1.7 | 5.2 | 0.00 | 0.14 | 0.08 | 89 | 1014.9 |
| 20260505140503 | 55 | 269 | 0.9 | 3.5 | 0.00 | 0.14 | 0.08 | 89 | 1014.4 |
| 20260505125003 | 54 | 277 | 0.0 | 2.6 | 0.00 | 0.14 | 0.08 | 88 | 1014.2 |
| 20260505124503 | 54 | 292 | 0.0 | 2.6 | 0.00 | 0.14 | 0.08 | 88 | 1014.2 |
| 20260505124003 | 54 | 300 | 0.0 | 2.6 | 0.00 | 0.14 | 0.08 | 88 | 1014.2 |
| 20260505123717 | 54 | 271 | 0.9 | 2.6 | 0.00 | 0.14 | 0.08 | 88 | 1014.1 |
| 20260505123003 | 54 | 266 | 0.9 | 3.5 | 0.00 | 0.14 | 0.08 | 88 | 1014.0 |
| 20260505122503 | 54 | 280 | 0.9 | 3.5 | 0.00 | 0.14 | 0.08 | 88 | 1014.1 |
| 20260505122004 | 54 | 321 | 0.9 | 2.6 | 0.00 | 0.14 | 0.08 | 88 | 1014.1 |
| 20260505121503 | 54 | 319 | 0.9 | 2.6 | 0.00 | 0.14 | 0.08 | 88 | 1014.1 |
| 20260505121217 | 54 | 324 | 0.9 | 4.3 | 0.00 | 0.14 | 0.08 | 88 | 1014.1 |
| 20260505120503 | 54 | 287 | 0.9 | 4.3 | 0.00 | 0.14 | 0.08 | 88 | 1014.0 |
| 20260505120220 | 54 | 273 | 0.9 | 4.3 | 0.00 | 0.14 | 0.08 | 88 | 1014.0 |
| 20260505115716 | 54 | 284 | 0.9 | 3.5 | 0.00 | 0.14 | 0.08 | 88 | 1014.1 |
| 20260505115003 | 54 | 299 | 0.9 | 3.5 | 0.00 | 0.14 | 0.08 | 88 | 1014.0 |
| 20260505114503 | 54 | 296 | 0.0 | 3.5 | 0.00 | 0.14 | 0.08 | 88 | 1014.0 |
| 20260505114003 | 54 | 271 | 0.0 | 1.7 | 0.00 | 0.14 | 0.08 | 88 | 1014.0 |
| 20260505113503 | 54 | 269 | 0.0 | 1.7 | 0.00 | 0.14 | 0.08 | 88 | 1014.1 |
| 20260505113003 | 54 | 281 | 0.0 | 2.6 | 0.00 | 0.14 | 0.08 | 87 | 1014.1 |
| 20260505112503 | 54 | 330 | 0.0 | 2.6 | 0.00 | 0.14 | 0.08 | 87 | 1014.3 |
| 20260505112004 | 53 | 346 | 0.0 | 1.7 | 0.00 | 0.14 | 0.08 | 87 | 1014.4 |
| 20260505111504 | 53 | 276 | 0.9 | 3.5 | 0.00 | 0.14 | 0.08 | 87 | 1014.3 |
| 20260505111003 | 53 | 265 | 0.9 | 3.5 | 0.00 | 0.14 | 0.08 | 87 | 1014.2 |
| 20260505110503 | 53 | 258 | 0.0 | 1.7 | 0.00 | 0.14 | 0.08 | 87 | 1014.2 |